createdAt,value
2022-12-28T00:01:11.650Z,99412.88
2022-12-28T00:03:38.259Z,99413.72
2022-12-28T00:06:05.854Z,99419.00
2022-12-28T00:08:32.578Z,99407.56
2022-12-28T00:11:12.164Z,99406.63
2022-12-28T00:13:45.726Z,99406.63
2022-12-28T00:16:29.056Z,99403.13
2022-12-28T00:18:58.073Z,99397.81
2022-12-28T00:21:25.313Z,99401.50
2022-12-28T00:23:52.982Z,99403.97
2022-12-28T00:26:20.182Z,99401.44
2022-12-28T00:28:47.926Z,99388.78
2022-12-28T00:31:15.695Z,99408.34
2022-12-28T00:33:42.805Z,99402.06
2022-12-28T00:36:13.747Z,99397.09
2022-12-28T00:38:42.204Z,99398.03
2022-12-28T00:41:09.802Z,99408.22
2022-12-28T00:43:36.910Z,99408.41
2022-12-28T00:46:04.210Z,99412.66
2022-12-28T00:48:31.877Z,99399.91
2022-12-28T00:51:08.378Z,99416.19
2022-12-28T00:53:35.398Z,99410.88
2022-12-28T00:56:18.976Z,99409.19
2022-12-28T00:58:48.737Z,99403.03
2022-12-28T01:01:19.039Z,99412.59
2022-12-28T01:03:46.385Z,99415.63
2022-12-28T01:06:15.159Z,99422.31
2022-12-28T01:08:42.615Z,99426.78
2022-12-28T01:11:23.820Z,99418.94
2022-12-28T01:13:52.683Z,99410.34
2022-12-28T01:16:28.460Z,99426.88
2022-12-28T01:18:57.809Z,99417.97
2022-12-28T01:21:27.530Z,99418.34
2022-12-28T01:23:56.188Z,99421.59
2022-12-28T01:26:23.196Z,99408.06
2022-12-28T01:28:50.272Z,99416.34
2022-12-28T01:31:18.103Z,99414.69
2022-12-28T01:33:45.090Z,99401.91
2022-12-28T01:36:20.356Z,99412.88
2022-12-28T01:38:48.266Z,99412.97
2022-12-28T01:41:17.487Z,99406.81
2022-12-28T01:43:48.393Z,99405.03
2022-12-28T01:46:22.470Z,99398.31
2022-12-28T01:49:10.637Z,99401.50
2022-12-28T01:52:04.218Z,99396.44
2022-12-28T01:54:39.395Z,99389.31
2022-12-28T01:57:06.073Z,99380.16
2022-12-28T01:59:37.323Z,99386.66
2022-12-28T02:02:04.293Z,99380.53
2022-12-28T02:04:31.140Z,99384.03
2022-12-28T02:06:57.904Z,99380.53
2022-12-28T02:09:33.669Z,99366.63
2022-12-28T02:12:00.917Z,99365.97
2022-12-28T02:14:27.875Z,99386.78
2022-12-28T02:16:55.210Z,99372.78
2022-12-28T02:19:33.041Z,99378.94
2022-12-28T02:22:21.173Z,99372.78
2022-12-28T02:25:13.985Z,99376.38
2022-12-28T02:27:59.281Z,99370.50
2022-12-28T02:30:25.942Z,99376.47
2022-12-28T02:33:13.315Z,99370.34
2022-12-28T02:35:54.263Z,99377.41
2022-12-28T02:38:33.012Z,99369.47
2022-12-28T02:41:03.835Z,99357.50
2022-12-28T02:43:32.557Z,99332.91
2022-12-28T02:46:35.139Z,99361.53
2022-12-28T02:49:37.722Z,99334.03
2022-12-28T02:52:25.270Z,99358.16
2022-12-28T02:55:27.292Z,99346.69
2022-12-28T02:58:13.361Z,99339.69
2022-12-28T03:00:55.366Z,99334.50
2022-12-28T03:03:45.974Z,99325.78
2022-12-28T03:06:56.844Z,99311.25
2022-12-28T03:09:38.016Z,99310.69
2022-12-28T03:12:15.732Z,99316.16
2022-12-28T03:14:54.094Z,99323.13
2022-12-28T03:17:44.132Z,99305.31
2022-12-28T03:20:40.101Z,99319.75
2022-12-28T03:23:28.978Z,99310.09
2022-12-28T03:26:17.636Z,99312.00
2022-12-28T03:29:08.261Z,99300.75
2022-12-28T03:31:38.890Z,99301.91
2022-12-28T03:34:10.587Z,99306.03
2022-12-28T03:37:10.532Z,99306.03
2022-12-28T03:39:51.968Z,99307.97
2022-12-28T03:42:52.655Z,99315.91
2022-12-28T03:45:45.323Z,99319.59
2022-12-28T03:48:15.936Z,99323.19
2022-12-28T03:50:46.817Z,99309.41
2022-12-28T03:53:23.034Z,99298.25
2022-12-28T03:55:52.470Z,99314.38
2022-12-28T03:58:21.856Z,99314.38
2022-12-28T04:00:49.656Z,99302.97
2022-12-28T04:03:17.350Z,99304.72
2022-12-28T04:08:01.281Z,99290.22
2022-12-28T04:10:28.263Z,99292.53
2022-12-28T04:12:56.673Z,99298.06
2022-12-28T04:15:37.945Z,99287.47
2022-12-28T04:18:04.770Z,99277.38
2022-12-28T04:20:32.044Z,99276.59
2022-12-28T04:22:58.740Z,99284.81
2022-12-28T04:25:26.299Z,99292.88
2022-12-28T04:30:16.107Z,99276.69
2022-12-28T04:32:42.752Z,99288.59
2022-12-28T04:35:09.525Z,99267.22
2022-12-28T04:37:44.311Z,99289.56
2022-12-28T04:40:11.321Z,99278.09
2022-12-28T04:42:37.812Z,99273.75
2022-12-28T04:45:05.565Z,99278.31
2022-12-28T04:47:32.054Z,99275.69
2022-12-28T04:49:58.701Z,99272.13
2022-12-28T04:52:25.362Z,99265.13
2022-12-28T04:54:52.149Z,99264.28
2022-12-28T04:57:18.662Z,99259.84
2022-12-28T04:59:45.286Z,99255.81
2022-12-28T05:02:11.984Z,99258.25
2022-12-28T05:04:38.627Z,99254.75
2022-12-28T05:07:05.147Z,99263.53
2022-12-28T05:09:31.876Z,99257.41
2022-12-28T05:11:58.360Z,99242.69
2022-12-28T05:14:24.947Z,99254.09
2022-12-28T05:16:52.166Z,99246.28
2022-12-28T05:19:18.773Z,99248.91
2022-12-28T05:21:45.325Z,99257.59
2022-12-28T05:24:12.021Z,99256.75
2022-12-28T05:26:38.560Z,99253.25
2022-12-28T05:29:05.347Z,99259.41
2022-12-28T05:31:31.911Z,99250.69
2022-12-28T05:33:58.642Z,99249.75
2022-12-28T05:36:26.945Z,99242.75
2022-12-28T05:38:54.827Z,99249.84
2022-12-28T05:41:24.353Z,99250.69
2022-12-28T05:43:51.965Z,99249.03
2022-12-28T05:46:22.032Z,99226.72
2022-12-28T05:48:48.933Z,99247.31
2022-12-28T05:51:18.308Z,99243.81
2022-12-28T05:53:44.898Z,99235.88
2022-12-28T05:56:20.961Z,99247.38
2022-12-28T05:58:53.624Z,99210.19
2022-12-28T06:01:23.003Z,99231.63
2022-12-28T06:03:53.946Z,99216.25
2022-12-28T06:06:21.231Z,99225.50
2022-12-28T06:08:48.910Z,99234.38
2022-12-28T06:13:36.205Z,99193.22
2022-12-28T06:16:15.219Z,99219.00
2022-12-28T06:18:42.383Z,99225.78
2022-12-28T06:21:13.081Z,99224.06
2022-12-28T06:23:40.385Z,99216.25
2022-12-28T06:26:08.224Z,99213.59
2022-12-28T06:28:38.227Z,99217.94
2022-12-28T06:31:11.631Z,99210.31
2022-12-28T06:33:38.696Z,99220.78
2022-12-28T06:36:14.719Z,99211.13
2022-12-28T06:38:46.846Z,99198.31
2022-12-28T06:41:15.319Z,99192.56
2022-12-28T06:43:43.495Z,99200.66
2022-12-28T06:46:11.622Z,99200.00
2022-12-28T06:48:39.277Z,99193.66
2022-12-28T06:51:13.805Z,99190.75
2022-12-28T06:53:40.797Z,99199.91
2022-12-28T06:56:32.834Z,99191.13
2022-12-28T06:59:03.771Z,99191.13
2022-12-28T07:01:38.182Z,99194.72
2022-12-28T07:04:06.797Z,99193.88
2022-12-28T07:06:42.312Z,99184.34
2022-12-28T07:09:13.711Z,99184.25
2022-12-28T07:11:41.073Z,99123.69
2022-12-28T07:14:07.620Z,99178.00
2022-12-28T07:19:03.544Z,99168.47
2022-12-28T07:21:36.207Z,99167.16
2022-12-28T07:24:04.553Z,99170.91
2022-12-28T07:26:34.490Z,99164.78
2022-12-28T07:29:02.939Z,99173.56
2022-12-28T07:31:35.742Z,99166.56
2022-12-28T07:34:05.065Z,99170.91
2022-12-28T07:36:32.960Z,99163.84
2022-12-28T07:39:00.348Z,99167.31
2022-12-28T07:41:29.753Z,99165.50
2022-12-28T07:43:59.544Z,99155.03
2022-12-28T07:46:31.154Z,99155.91
2022-12-28T07:49:01.250Z,99148.97
2022-12-28T07:51:33.146Z,99165.50
2022-12-28T07:54:00.433Z,99155.91
2022-12-28T07:56:29.167Z,99148.78
2022-12-28T07:58:58.703Z,99145.31
2022-12-28T08:01:27.883Z,99149.75
2022-12-28T08:03:57.857Z,99146.53
2022-12-28T08:06:26.005Z,99150.69
2022-12-28T08:08:55.289Z,99148.97
2022-12-28T08:11:27.513Z,99142.84
2022-12-28T08:13:54.950Z,99151.63
2022-12-28T08:16:24.342Z,99149.84
2022-12-28T08:18:51.042Z,99147.19
2022-12-28T08:21:24.535Z,99144.56
2022-12-28T08:23:51.908Z,99149.75
2022-12-28T08:26:22.498Z,99140.84
2022-12-28T08:28:50.920Z,99146.03
2022-12-28T08:31:21.094Z,99139.81
2022-12-28T08:33:48.239Z,99141.41
2022-12-28T08:36:14.922Z,99145.63
2022-12-28T08:38:43.118Z,99144.59
2022-12-28T08:41:13.539Z,99140.88
2022-12-28T08:43:40.512Z,99145.25
2022-12-28T08:46:13.353Z,99145.16
2022-12-28T08:48:41.464Z,99142.59
2022-12-28T08:51:12.475Z,99151.19
2022-12-28T08:53:40.646Z,99144.94
2022-12-28T08:56:12.829Z,99137.94
2022-12-28T08:58:40.361Z,99144.94
2022-12-28T09:01:21.913Z,99139.53
2022-12-28T09:03:51.400Z,99139.66
2022-12-28T09:06:21.492Z,99139.66
2022-12-28T09:09:08.110Z,99144.75
2022-12-28T09:11:36.473Z,99142.00
2022-12-28T09:14:05.079Z,99142.00
2022-12-28T09:16:31.703Z,99136.72
2022-12-28T09:19:00.108Z,99143.59
2022-12-28T09:21:29.865Z,99148.78
2022-12-28T09:23:57.027Z,99139.13
2022-12-28T09:26:29.176Z,99128.47
2022-12-28T09:28:57.926Z,99131.13
2022-12-28T09:31:27.546Z,99132.91
2022-12-28T09:36:47.862Z,99126.66
2022-12-28T09:39:18.194Z,99128.38
2022-12-28T09:42:03.488Z,99126.50
2022-12-28T09:44:39.971Z,99120.22
2022-12-28T09:47:21.562Z,99121.94
2022-12-28T09:50:13.314Z,99117.41
2022-12-28T09:53:06.565Z,99112.22
2022-12-28T09:55:35.255Z,99112.09
2022-12-28T09:58:04.149Z,99106.69
2022-12-28T10:00:45.298Z,99105.63
2022-12-28T10:03:18.746Z,99106.41
2022-12-28T10:05:45.991Z,99016.94
2022-12-28T10:08:17.286Z,99103.53
2022-12-28T10:10:48.627Z,99081.81
2022-12-28T10:13:53.418Z,99094.56
2022-12-28T10:16:20.404Z,99088.28
2022-12-28T10:18:48.510Z,99088.19
2022-12-28T10:21:18.491Z,99077.63
2022-12-28T10:24:20.922Z,99069.88
2022-12-28T10:26:35.291Z,99072.09
2022-12-28T10:29:01.882Z,99065.00
2022-12-28T10:31:38.514Z,99070.19
2022-12-28T10:34:22.776Z,99065.75
2022-12-28T10:36:50.692Z,99064.03
2022-12-28T10:39:28.868Z,99065.66
2022-12-28T10:41:58.184Z,99068.31
2022-12-28T10:44:39.268Z,99070.84
2022-12-28T10:47:18.203Z,99062.03
2022-12-28T10:50:10.514Z,99057.59
2022-12-28T10:52:39.631Z,99049.53
2022-12-28T10:55:30.773Z,99038.94
2022-12-28T10:58:29.178Z,99014.06
2022-12-28T11:01:10.722Z,99018.50
2022-12-28T11:03:40.035Z,99016.69
2022-12-28T11:06:13.111Z,98995.00
2022-12-28T11:08:41.606Z,99004.94
2022-12-28T11:11:18.125Z,98993.50
2022-12-28T11:13:53.460Z,98997.63
2022-12-28T11:16:21.166Z,98971.91
2022-12-28T11:18:47.958Z,98980.78
2022-12-28T11:21:20.047Z,98980.78
2022-12-28T11:23:49.228Z,98973.69
2022-12-28T11:26:18.229Z,98965.00
2022-12-28T11:28:48.301Z,98951.25
2022-12-28T11:31:28.107Z,98962.88
2022-12-28T11:33:58.883Z,98955.88
2022-12-28T11:36:27.438Z,98951.31
2022-12-28T11:38:56.390Z,98943.38
2022-12-28T11:41:31.979Z,98944.22
2022-12-28T11:44:04.484Z,98943.19
2022-12-28T11:46:31.113Z,98933.41
2022-12-28T11:49:03.831Z,98918.91
2022-12-28T11:51:35.511Z,98927.16
2022-12-28T11:54:38.672Z,98919.22
2022-12-28T11:57:07.674Z,98924.53
2022-12-28T11:59:35.768Z,98919.22
2022-12-28T12:02:28.745Z,98909.56
2022-12-28T12:04:55.340Z,98910.41
2022-12-28T12:07:31.178Z,98902.59
2022-12-28T12:10:44.545Z,98901.63
2022-12-28T12:13:26.419Z,98895.50
2022-12-28T12:16:06.923Z,98890.28
2022-12-28T12:18:52.237Z,98891.16
2022-12-28T12:21:39.655Z,98876.97
2022-12-28T12:24:30.586Z,98874.31
2022-12-28T12:27:13.476Z,98863.91
2022-12-28T12:29:45.299Z,98876.09
2022-12-28T12:34:55.216Z,98854.59
2022-12-28T12:37:37.447Z,98858.41
2022-12-28T12:40:10.130Z,98855.78
2022-12-28T12:42:36.686Z,98850.47
2022-12-28T12:45:36.291Z,98839.88
2022-12-28T12:48:22.867Z,98841.66
2022-12-28T12:50:59.192Z,98839.00
2022-12-28T12:53:28.800Z,98833.72
2022-12-28T12:56:30.648Z,98838.19
2022-12-28T12:59:24.711Z,98827.59
2022-12-28T13:02:40.148Z,98818.06
2022-12-28T13:05:11.949Z,98825.88
2022-12-28T13:07:40.045Z,98819.72
2022-12-28T13:10:14.034Z,98816.38
2022-12-28T13:12:41.114Z,98824.19
2022-12-28T13:15:15.076Z,98820.72
2022-12-28T13:18:42.976Z,98812.22
2022-12-28T13:20:57.585Z,98827.78
2022-12-28T13:23:26.497Z,98828.66
2022-12-28T13:25:56.285Z,98832.25
2022-12-28T13:28:28.691Z,98824.41
2022-12-28T13:31:18.272Z,98826.97
2022-12-28T13:34:15.703Z,98817.31
2022-12-28T13:36:58.455Z,98816.47
2022-12-28T13:39:30.468Z,98808.63
2022-12-28T13:42:00.426Z,98799.84
2022-12-28T13:44:36.236Z,98798.03
2022-12-28T13:47:05.200Z,98747.75
2022-12-28T13:49:36.938Z,98780.56
2022-12-28T13:52:08.591Z,98774.44
2022-12-28T13:54:38.844Z,98765.56
2022-12-28T13:57:36.464Z,98756.44
2022-12-28T13:59:55.737Z,98767.34
2022-12-28T14:02:23.896Z,98771.69
2022-12-28T14:04:54.068Z,98756.88
2022-12-28T14:07:24.147Z,98769.25
2022-12-28T14:09:51.650Z,98762.63
2022-12-28T14:12:18.919Z,98767.44
2022-12-28T14:14:47.892Z,98762.16
2022-12-28T14:17:15.389Z,98770.09
2022-12-28T14:19:42.970Z,98768.28
2022-12-28T14:22:35.834Z,98773.59
2022-12-28T14:25:22.412Z,98773.59
2022-12-28T14:27:58.466Z,98772.63
2022-12-28T14:30:27.832Z,98766.50
2022-12-28T14:35:22.703Z,98772.50
2022-12-28T14:37:56.921Z,98768.91
2022-12-28T14:40:31.175Z,98775.91
2022-12-28T14:43:03.067Z,98771.56
2022-12-28T14:45:36.321Z,98773.13
2022-12-28T14:48:32.731Z,98778.44
2022-12-28T14:51:03.347Z,98784.59
2022-12-28T14:53:31.271Z,98776.63
2022-12-28T14:56:11.406Z,98771.44
2022-12-28T14:58:54.750Z,98766.03
2022-12-28T15:01:22.562Z,98757.34
2022-12-28T15:04:05.369Z,98771.34
2022-12-28T15:06:32.689Z,98759.06
2022-12-28T15:08:59.930Z,98768.69
2022-12-28T15:11:28.984Z,98766.88
2022-12-28T15:13:57.436Z,98765.09
2022-12-28T15:16:24.210Z,98762.44
2022-12-28T15:18:50.873Z,98755.34
2022-12-28T15:21:20.313Z,98757.97
2022-12-28T15:23:53.995Z,98753.50
2022-12-28T15:26:23.427Z,98757.16
2022-12-28T15:28:50.541Z,98754.59
2022-12-28T15:31:20.022Z,98749.28
2022-12-28T15:36:24.931Z,98742.44
2022-12-28T15:38:51.546Z,98747.72
2022-12-28T15:43:36.347Z,98741.72
2022-12-28T15:46:02.937Z,98741.72
2022-12-28T15:48:32.566Z,98743.50
2022-12-28T15:50:59.165Z,98738.94
2022-12-28T15:53:25.727Z,98741.88
2022-12-28T15:56:20.400Z,98736.34
2022-12-28T15:58:47.058Z,98740.56
2022-12-28T16:01:16.468Z,98731.19
2022-12-28T16:03:43.212Z,98724.22
2022-12-28T16:06:09.834Z,98724.53
2022-12-28T16:08:37.763Z,98722.63
2022-12-28T16:11:12.605Z,98716.59
2022-12-28T16:13:39.459Z,98703.41
2022-12-28T16:16:07.800Z,98719.78
2022-12-28T16:18:34.933Z,98734.81
2022-12-28T16:21:03.063Z,98710.00
2022-12-28T16:23:32.022Z,98722.91
2022-12-28T16:25:59.938Z,98715.09
2022-12-28T16:28:27.324Z,98707.22
2022-12-28T16:30:54.578Z,98706.53
2022-12-28T16:33:22.002Z,98699.53
2022-12-28T16:35:50.839Z,98687.31
2022-12-28T16:38:22.999Z,98700.59
2022-12-28T16:40:49.853Z,98694.44
2022-12-28T16:43:19.280Z,98690.09
2022-12-28T16:45:45.955Z,98671.66
2022-12-28T16:48:15.105Z,98680.09
2022-12-28T16:50:42.294Z,98687.56
2022-12-28T16:53:09.235Z,98673.22
2022-12-28T16:55:42.906Z,98692.03
2022-12-28T16:58:09.951Z,98685.19
2022-12-28T17:00:39.408Z,98687.69
2022-12-28T17:03:06.114Z,98680.72
2022-12-28T17:05:34.661Z,98682.41
2022-12-28T17:08:02.182Z,98678.81
2022-12-28T17:10:29.129Z,98677.94
2022-12-28T17:12:55.787Z,98684.09
2022-12-28T17:15:25.905Z,98689.50
2022-12-28T17:17:52.518Z,98685.88
2022-12-28T17:20:19.218Z,98685.19
2022-12-28T17:22:45.842Z,98680.84
2022-12-28T17:25:12.546Z,98679.75
2022-12-28T17:27:39.197Z,98680.59
2022-12-28T17:30:06.049Z,98678.91
2022-12-28T17:32:33.400Z,98678.06
2022-12-28T17:35:00.178Z,98681.53
2022-12-28T17:37:26.859Z,98684.19
2022-12-28T17:39:53.431Z,98676.25
2022-12-28T17:42:20.102Z,98674.59
2022-12-28T17:44:48.382Z,98679.16
2022-12-28T17:47:15.195Z,98686.84
2022-12-28T17:49:42.035Z,98689.72
2022-12-28T17:52:08.620Z,98678.19
2022-12-28T17:54:35.208Z,98688.66
2022-12-28T17:57:01.970Z,98684.31
2022-12-28T17:59:28.529Z,98676.50
2022-12-28T18:01:55.657Z,98682.53
2022-12-28T18:04:22.307Z,98677.22
2022-12-28T18:06:48.962Z,98676.25
2022-12-28T18:09:15.786Z,98679.75
2022-12-28T18:11:42.351Z,98665.66
2022-12-28T18:14:12.850Z,98671.69
2022-12-28T18:16:39.892Z,98664.59
2022-12-28T18:19:06.507Z,98674.22
2022-12-28T18:21:33.163Z,98664.59
2022-12-28T18:23:59.659Z,98672.44
2022-12-28T18:26:27.013Z,98675.91
2022-12-28T18:28:57.641Z,98671.47
2022-12-28T18:31:25.258Z,98675.78
2022-12-28T18:33:52.342Z,98668.69
2022-12-28T18:36:22.176Z,98664.47
2022-12-28T18:38:49.579Z,98670.38
2022-12-28T18:41:20.605Z,98669.53
2022-12-28T18:43:47.742Z,98670.38
2022-12-28T18:46:14.725Z,98673.03
2022-12-28T18:48:42.712Z,98670.38
2022-12-28T18:51:16.897Z,98666.03
2022-12-28T18:53:43.976Z,98661.94
2022-12-28T18:56:14.081Z,98666.03
2022-12-28T18:58:42.294Z,98661.69
2022-12-28T19:01:39.701Z,98650.13
2022-12-28T19:04:01.110Z,98667.97
2022-12-28T19:06:29.125Z,98659.19
2022-12-28T19:09:02.187Z,98668.09
2022-12-28T19:11:29.251Z,98657.50
2022-12-28T19:13:58.076Z,98647.56
2022-12-28T19:16:31.046Z,98655.78
2022-12-28T19:19:03.970Z,98655.19
2022-12-28T19:21:38.366Z,98651.69
2022-12-28T19:24:17.339Z,98662.91
2022-12-28T19:26:45.614Z,98646.13
2022-12-28T19:29:13.294Z,98658.69
2022-12-28T19:31:43.000Z,98612.28
2022-12-28T19:34:09.984Z,98664.09
2022-12-28T19:36:36.723Z,98660.72
2022-12-28T19:39:13.417Z,98657.13
2022-12-28T19:41:43.180Z,98647.56
2022-12-28T19:44:13.023Z,98647.09
2022-12-28T19:46:47.504Z,98644.94
2022-12-28T19:49:20.515Z,98651.31
2022-12-28T19:51:57.326Z,98625.88
2022-12-28T19:54:26.595Z,98644.22
2022-12-28T19:56:56.119Z,98640.84
2022-12-28T19:59:24.423Z,98636.38
2022-12-28T20:02:03.616Z,98630.25
2022-12-28T20:04:35.583Z,98633.84
2022-12-28T20:07:02.594Z,98622.56
2022-12-28T20:09:29.331Z,98620.13
2022-12-28T20:11:56.509Z,98628.81
2022-12-28T20:14:26.068Z,98621.19
2022-12-28T20:16:53.311Z,98600.81
2022-12-28T20:19:22.620Z,98606.72
2022-12-28T20:21:49.675Z,98616.72
2022-12-28T20:24:21.834Z,98606.59
2022-12-28T20:26:48.605Z,98626.50
2022-12-28T20:29:17.044Z,98615.06
2022-12-28T20:31:44.538Z,98628.31
2022-12-28T20:34:11.738Z,98628.31
2022-12-28T20:36:41.623Z,98611.41
2022-12-28T20:39:08.429Z,98629.25
2022-12-28T20:41:56.809Z,98633.69
2022-12-28T20:44:26.481Z,98630.22
2022-12-28T20:46:54.444Z,98626.72
2022-12-28T20:49:23.071Z,98623.09
2022-12-28T20:51:51.296Z,98619.63
2022-12-28T20:54:19.757Z,98618.78
2022-12-28T20:56:53.971Z,98613.72
2022-12-28T20:59:26.006Z,98614.47
2022-12-28T21:01:55.107Z,98605.78
2022-12-28T21:04:24.476Z,98612.63
2022-12-28T21:06:52.844Z,98612.63
2022-12-28T21:09:19.872Z,98583.72
2022-12-28T21:11:46.743Z,98607.34
2022-12-28T21:14:13.825Z,98603.00
2022-12-28T21:16:40.562Z,98605.66
2022-12-28T21:19:07.116Z,98596.88
2022-12-28T21:21:33.795Z,98581.69
2022-12-28T21:24:02.703Z,98561.09
2022-12-28T21:26:29.395Z,98570.47
2022-12-28T21:28:55.922Z,98594.34
2022-12-28T21:31:23.117Z,98591.19
2022-12-28T21:33:49.678Z,98587.59
2022-12-28T21:36:19.099Z,98590.03
2022-12-28T21:38:48.192Z,98584.72
2022-12-28T21:41:37.755Z,98574.13
2022-12-28T21:44:06.816Z,98588.19
2022-12-28T21:46:34.315Z,98569.19
2022-12-28T21:49:03.398Z,98568.84
2022-12-28T21:51:35.368Z,98559.41
2022-12-28T21:54:13.578Z,98552.44
2022-12-28T21:56:41.955Z,98568.09
2022-12-28T21:59:09.403Z,98552.56
2022-12-28T22:04:24.854Z,98548.75
2022-12-28T22:06:51.445Z,98545.34
2022-12-28T22:09:36.491Z,98545.34
2022-12-28T22:12:21.783Z,98542.09
2022-12-28T22:14:48.421Z,98545.34
2022-12-28T22:17:15.022Z,98542.72
2022-12-28T22:19:41.710Z,98541.00
2022-12-28T22:22:08.323Z,98545.22
2022-12-28T22:24:34.915Z,98536.34
2022-12-28T22:27:01.450Z,98538.16
2022-12-28T22:29:28.100Z,98538.03
2022-12-28T22:31:54.659Z,98529.22
2022-12-28T22:34:21.297Z,98510.47
2022-12-28T22:36:47.899Z,98532.59
2022-12-28T22:39:14.569Z,98525.88
2022-12-28T22:41:41.109Z,98522.34
2022-12-28T22:44:09.884Z,98517.59
2022-12-28T22:46:39.498Z,98514.19
2022-12-28T22:49:06.216Z,98513.13
2022-12-28T22:53:45.061Z,98512.16
2022-12-28T22:56:19.944Z,98516.59
2022-12-28T22:58:48.068Z,98499.88
2022-12-28T23:01:17.783Z,98519.16
2022-12-28T23:03:45.974Z,98517.31
2022-12-28T23:06:14.792Z,98515.03
2022-12-28T23:08:41.711Z,98519.16
2022-12-28T23:11:31.488Z,98518.28
2022-12-28T23:14:20.929Z,98513.00
2022-12-28T23:16:48.991Z,98517.44
2022-12-28T23:19:34.950Z,98520.94
2022-12-28T23:22:22.856Z,98504.69
2022-12-28T23:25:15.542Z,98515.16
2022-12-28T23:27:44.431Z,98521.06
2022-12-28T23:30:19.895Z,98518.41
2022-12-28T23:32:48.018Z,98508.66
2022-12-28T23:35:16.620Z,98510.34
2022-12-28T23:37:43.174Z,98513.84
2022-12-28T23:40:12.244Z,98512.16
2022-12-28T23:42:40.757Z,98501.44
2022-12-28T23:45:09.480Z,98493.75
2022-12-28T23:47:36.833Z,98506.59
2022-12-28T23:50:04.274Z,98511.06
2022-12-28T23:52:31.336Z,98473.75
2022-12-28T23:54:57.915Z,98485.28
2022-12-28T23:57:24.703Z,98509.16
2022-12-28T23:59:51.420Z,98500.47
